createdAt,value
2023-01-09T00:01:28.209Z,93.52
2023-01-09T00:03:55.993Z,93.34
2023-01-09T00:06:24.147Z,93.18
2023-01-09T00:08:51.828Z,93.06
2023-01-09T00:11:20.110Z,93.25
2023-01-09T00:13:47.719Z,93.28
2023-01-09T00:16:16.189Z,93.15
2023-01-09T00:18:44.189Z,93.53
2023-01-09T00:21:13.202Z,93.45
2023-01-09T00:23:41.379Z,93.56
2023-01-09T00:26:15.335Z,93.80
2023-01-09T00:28:43.638Z,93.40
2023-01-09T00:31:12.031Z,93.72
2023-01-09T00:33:43.514Z,93.69
2023-01-09T00:36:11.856Z,93.63
2023-01-09T00:38:41.219Z,94.14
2023-01-09T00:41:14.287Z,93.97
2023-01-09T00:43:47.016Z,93.73
2023-01-09T00:46:15.571Z,94.34
2023-01-09T00:48:45.671Z,93.98
2023-01-09T00:51:13.854Z,93.81
2023-01-09T00:53:43.107Z,94.14
2023-01-09T00:56:15.063Z,93.99
2023-01-09T00:58:43.127Z,93.90
2023-01-09T01:01:12.000Z,93.97
2023-01-09T01:03:39.760Z,94.05
2023-01-09T01:06:26.502Z,93.98
2023-01-09T01:08:55.933Z,94.13
2023-01-09T01:11:24.071Z,94.12
2023-01-09T01:13:51.983Z,94.30
2023-01-09T01:16:19.999Z,94.02
2023-01-09T01:18:47.834Z,94.40
2023-01-09T01:21:15.538Z,94.08
2023-01-09T01:23:43.401Z,94.29
2023-01-09T01:26:14.048Z,94.04
2023-01-09T01:28:42.752Z,94.25
2023-01-09T01:31:16.857Z,94.53
2023-01-09T01:33:44.566Z,94.26
2023-01-09T01:36:12.258Z,94.35
2023-01-09T01:38:39.887Z,94.31
2023-01-09T01:41:07.548Z,94.46
2023-01-09T01:43:56.445Z,94.50
2023-01-09T01:46:24.182Z,94.35
2023-01-09T01:49:01.026Z,94.00
2023-01-09T01:51:30.750Z,93.78
2023-01-09T01:54:01.631Z,94.13
2023-01-09T01:56:45.083Z,93.99
2023-01-09T01:59:24.452Z,93.64
2023-01-09T02:01:54.771Z,93.77
2023-01-09T02:04:22.553Z,93.47
2023-01-09T02:06:53.998Z,93.66
2023-01-09T02:09:26.806Z,93.48
2023-01-09T02:11:58.269Z,93.77
2023-01-09T02:14:29.744Z,93.37
2023-01-09T02:17:22.521Z,93.65
2023-01-09T02:19:59.239Z,93.69
2023-01-09T02:22:43.604Z,93.54
2023-01-09T02:25:17.178Z,93.94
2023-01-09T02:28:16.518Z,93.87
2023-01-09T02:30:56.943Z,93.76
2023-01-09T02:33:54.163Z,93.83
2023-01-09T02:36:45.868Z,93.83
2023-01-09T02:39:35.683Z,93.45
2023-01-09T02:42:13.430Z,93.65
2023-01-09T02:44:43.080Z,93.29
2023-01-09T02:47:16.629Z,93.18
2023-01-09T02:49:47.639Z,93.35
2023-01-09T02:52:47.854Z,93.15
2023-01-09T02:55:29.520Z,93.19
2023-01-09T02:58:35.051Z,93.31
2023-01-09T03:01:20.975Z,93.10
2023-01-09T03:03:58.989Z,92.90
2023-01-09T03:06:57.546Z,92.84
2023-01-09T03:09:29.484Z,92.91
2023-01-09T03:12:16.435Z,92.85
2023-01-09T03:14:49.903Z,92.68
2023-01-09T03:17:28.269Z,92.93
2023-01-09T03:19:57.947Z,92.59
2023-01-09T03:22:25.731Z,92.68
2023-01-09T03:24:53.399Z,92.89
2023-01-09T03:27:21.200Z,92.52
2023-01-09T03:29:48.870Z,92.79
2023-01-09T03:32:16.627Z,92.93
2023-01-09T03:34:44.340Z,93.00
2023-01-09T03:37:12.037Z,92.76
2023-01-09T03:39:39.764Z,92.75
2023-01-09T03:42:07.442Z,92.70
2023-01-09T03:44:35.175Z,92.95
2023-01-09T03:47:02.777Z,92.66
2023-01-09T03:49:30.590Z,92.69
2023-01-09T03:51:58.187Z,92.75
2023-01-09T03:54:25.924Z,92.63
2023-01-09T03:56:53.563Z,92.45
2023-01-09T03:59:21.329Z,92.56
2023-01-09T04:01:49.024Z,92.77
2023-01-09T04:04:16.850Z,92.66
2023-01-09T04:06:44.513Z,92.86
2023-01-09T04:09:12.193Z,92.99
2023-01-09T04:11:39.873Z,92.85
2023-01-09T04:14:07.561Z,93.17
2023-01-09T04:16:35.210Z,92.93
2023-01-09T04:19:02.902Z,93.25
2023-01-09T04:21:30.514Z,93.19
2023-01-09T04:23:58.332Z,93.06
2023-01-09T04:26:26.057Z,93.34
2023-01-09T04:28:53.715Z,93.00
2023-01-09T04:31:21.340Z,92.97
2023-01-09T04:33:49.051Z,93.11
2023-01-09T04:36:16.671Z,93.44
2023-01-09T04:38:44.339Z,93.39
2023-01-09T04:51:51.289Z,93.40
2023-01-09T04:54:19.662Z,93.67
2023-01-09T04:56:47.954Z,93.17
2023-01-09T04:59:15.648Z,92.94
2023-01-09T05:01:43.387Z,93.25
2023-01-09T05:04:11.679Z,93.19
2023-01-09T05:06:39.869Z,92.90
2023-01-09T05:09:07.539Z,93.07
2023-01-09T05:11:35.184Z,92.96
2023-01-09T05:14:02.801Z,93.51
2023-01-09T05:16:31.980Z,93.43
2023-01-09T05:19:00.608Z,93.53
2023-01-09T05:21:28.311Z,93.23
2023-01-09T05:23:56.068Z,93.27
2023-01-09T05:26:24.248Z,93.50
2023-01-09T05:28:58.268Z,93.43
2023-01-09T05:31:27.162Z,93.27
2023-01-09T05:33:56.106Z,93.12
2023-01-09T05:36:23.780Z,93.00
2023-01-09T05:38:51.452Z,93.38
2023-01-09T05:41:19.184Z,93.51
2023-01-09T05:43:46.765Z,93.19
2023-01-09T05:46:14.395Z,93.48
2023-01-09T05:48:42.090Z,93.50
2023-01-09T05:51:09.682Z,92.84
2023-01-09T05:53:37.411Z,92.69
2023-01-09T05:56:05.273Z,92.86
2023-01-09T05:58:33.075Z,93.07
2023-01-09T06:01:00.725Z,93.29
2023-01-09T06:03:28.412Z,93.40
2023-01-09T06:05:56.101Z,93.14
2023-01-09T06:08:24.284Z,92.99
2023-01-09T06:10:51.909Z,93.22
2023-01-09T06:13:19.540Z,92.90
2023-01-09T06:15:48.527Z,92.86
2023-01-09T06:18:16.331Z,92.77
2023-01-09T06:20:46.058Z,92.73
2023-01-09T06:23:14.014Z,92.73
2023-01-09T06:25:42.291Z,92.60
2023-01-09T06:28:09.935Z,92.94
2023-01-09T06:30:37.610Z,92.95
2023-01-09T06:33:05.241Z,92.80
2023-01-09T06:35:32.843Z,92.85
2023-01-09T06:38:02.942Z,92.86
2023-01-09T06:40:30.670Z,92.91
2023-01-09T06:42:58.371Z,92.82
2023-01-09T06:45:26.051Z,92.90
2023-01-09T06:47:53.802Z,92.91
2023-01-09T06:50:21.824Z,93.08
2023-01-09T06:52:49.506Z,92.92
2023-01-09T06:55:17.743Z,92.91
2023-01-09T06:57:45.423Z,93.18
2023-01-09T07:00:13.533Z,93.12
2023-01-09T07:02:41.231Z,92.99
2023-01-09T07:05:11.531Z,93.14
2023-01-09T07:07:40.097Z,93.14
2023-01-09T07:10:10.936Z,93.06
2023-01-09T07:12:38.630Z,92.65
2023-01-09T07:15:06.742Z,92.80
2023-01-09T07:17:34.381Z,93.05
2023-01-09T07:20:02.069Z,92.90
2023-01-09T07:22:29.716Z,93.11
2023-01-09T07:24:57.485Z,92.79
2023-01-09T07:27:25.125Z,92.99
2023-01-09T07:29:53.414Z,92.99
2023-01-09T07:32:21.094Z,92.86
2023-01-09T07:34:49.715Z,93.01
2023-01-09T07:37:17.588Z,92.77
2023-01-09T07:39:45.303Z,92.74
2023-01-09T07:42:12.963Z,92.54
2023-01-09T07:44:40.899Z,92.61
2023-01-09T07:47:08.823Z,92.72
2023-01-09T07:49:36.474Z,92.74
2023-01-09T07:52:05.012Z,92.38
2023-01-09T07:54:32.774Z,92.74
2023-01-09T07:57:00.430Z,92.40
2023-01-09T07:59:29.693Z,92.45
2023-01-09T08:01:57.390Z,92.43
2023-01-09T08:04:25.118Z,92.23
2023-01-09T08:06:52.740Z,92.29
2023-01-09T08:09:20.434Z,92.09
2023-01-09T08:11:48.065Z,92.32
2023-01-09T08:14:15.711Z,92.28
2023-01-09T08:16:43.383Z,92.28
2023-01-09T08:19:12.290Z,92.30
2023-01-09T08:21:40.230Z,92.17
2023-01-09T08:24:09.796Z,92.13
2023-01-09T08:26:37.564Z,91.99
2023-01-09T08:29:06.508Z,92.36
2023-01-09T08:31:34.297Z,92.31
2023-01-09T08:34:02.561Z,91.94
2023-01-09T08:36:30.180Z,91.94
2023-01-09T08:38:57.856Z,92.13
2023-01-09T08:41:44.186Z,92.13
2023-01-09T08:44:30.353Z,92.03
2023-01-09T08:47:06.995Z,91.96
2023-01-09T08:49:36.406Z,92.22
2023-01-09T08:52:06.246Z,92.17
2023-01-09T08:54:36.840Z,92.11
2023-01-09T08:57:04.657Z,92.30
2023-01-09T08:59:32.529Z,91.98
2023-01-09T09:02:00.750Z,91.87
2023-01-09T09:04:28.598Z,91.80
2023-01-09T09:06:56.234Z,91.69
2023-01-09T09:09:25.779Z,91.72
2023-01-09T09:11:53.469Z,91.89
2023-01-09T09:14:39.867Z,91.69
2023-01-09T09:17:07.643Z,91.62
2023-01-09T09:19:35.297Z,91.57
2023-01-09T09:22:02.972Z,91.46
2023-01-09T09:24:30.595Z,91.39
2023-01-09T09:26:58.239Z,91.42
2023-01-09T09:29:25.925Z,91.30
2023-01-09T09:31:53.655Z,91.27
2023-01-09T09:34:21.277Z,91.24
2023-01-09T09:36:48.894Z,91.14
2023-01-09T09:39:16.521Z,91.12
2023-01-09T09:42:27.889Z,91.13
2023-01-09T09:45:06.742Z,90.97
2023-01-09T09:48:00.512Z,91.00
2023-01-09T09:50:59.224Z,90.84
2023-01-09T09:53:35.964Z,90.94
2023-01-09T09:56:05.177Z,90.90
2023-01-09T09:58:45.429Z,90.59
2023-01-09T10:04:14.164Z,90.44
2023-01-09T10:06:45.743Z,90.79
2023-01-09T10:09:35.380Z,90.89
2023-01-09T10:23:33.502Z,90.88
2023-01-09T10:26:18.435Z,91.01
2023-01-09T10:29:03.353Z,91.25
2023-01-09T10:31:48.514Z,91.17
2023-01-09T10:34:54.113Z,91.32
2023-01-09T10:37:52.579Z,91.26
2023-01-09T10:40:24.351Z,91.51
2023-01-09T10:43:16.556Z,91.59
2023-01-09T10:45:55.905Z,92.15
2023-01-09T10:48:31.215Z,92.14
2023-01-09T10:50:58.712Z,92.16
2023-01-09T10:53:29.820Z,92.42
2023-01-09T10:56:03.981Z,92.64
2023-01-09T10:58:30.343Z,92.75
2023-01-09T11:01:00.589Z,93.24
2023-01-09T11:03:28.091Z,92.82
2023-01-09T11:05:57.672Z,92.69
2023-01-09T11:08:41.421Z,92.94
2023-01-09T11:11:09.271Z,92.96
2023-01-09T11:13:37.762Z,93.10
2023-01-09T11:16:04.866Z,92.95
2023-01-09T11:18:33.484Z,93.01
2023-01-09T11:21:40.520Z,93.07
2023-01-09T11:24:18.766Z,93.18
2023-01-09T11:26:46.078Z,93.11
2023-01-09T11:29:14.879Z,93.05
2023-01-09T11:31:49.733Z,93.47
2023-01-09T11:34:18.462Z,93.12
2023-01-09T11:36:46.120Z,93.37
2023-01-09T11:39:24.198Z,93.54
2023-01-09T11:41:57.015Z,93.32
2023-01-09T11:44:24.555Z,93.61
2023-01-09T11:46:51.212Z,93.43
2023-01-09T11:49:22.469Z,93.77
2023-01-09T11:52:14.923Z,93.64
2023-01-09T11:54:47.236Z,93.87
2023-01-09T11:57:13.786Z,93.74
2023-01-09T11:59:40.089Z,94.17
2023-01-09T12:02:21.673Z,94.43
2023-01-09T12:05:23.192Z,94.37
2023-01-09T12:08:07.134Z,94.30
2023-01-09T12:10:36.106Z,94.91
2023-01-09T12:13:11.428Z,94.67
2023-01-09T12:15:58.871Z,94.58
2023-01-09T12:18:32.554Z,94.57
2023-01-09T12:21:39.028Z,94.59
2023-01-09T12:24:20.490Z,94.65
2023-01-09T12:26:58.527Z,94.61
2023-01-09T12:29:56.571Z,94.55
2023-01-09T12:32:48.969Z,94.91
2023-01-09T12:35:43.550Z,94.91
2023-01-09T12:38:27.359Z,94.93
2023-01-09T12:40:56.272Z,94.82
2023-01-09T12:43:47.542Z,94.93
2023-01-09T12:46:22.770Z,95.07
2023-01-09T12:49:23.441Z,95.28
2023-01-09T12:52:00.689Z,95.41
2023-01-09T12:54:40.556Z,95.35
2023-01-09T12:57:17.825Z,95.71
2023-01-09T12:59:51.868Z,95.46
2023-01-09T13:02:18.132Z,95.64
2023-01-09T13:04:55.473Z,95.51
2023-01-09T13:07:35.336Z,95.61
2023-01-09T13:10:17.099Z,95.68
2023-01-09T13:12:46.890Z,95.55
2023-01-09T13:15:28.377Z,95.49
2023-01-09T13:18:01.046Z,95.45
2023-01-09T13:20:48.295Z,95.50
2023-01-09T13:23:29.642Z,95.46
2023-01-09T13:26:00.999Z,95.64
2023-01-09T13:28:33.593Z,95.56
2023-01-09T13:31:21.084Z,95.66
2023-01-09T13:33:57.060Z,95.38
2023-01-09T13:36:32.773Z,95.56
2023-01-09T13:39:00.797Z,95.43
2023-01-09T13:41:47.247Z,95.46
2023-01-09T13:44:28.075Z,95.42
2023-01-09T13:47:00.259Z,95.34
2023-01-09T13:49:29.212Z,95.31
2023-01-09T13:51:58.593Z,95.36
2023-01-09T13:54:54.490Z,95.28
2023-01-09T13:57:42.604Z,95.38
2023-01-09T14:00:11.661Z,95.35
2023-01-09T14:02:38.128Z,95.24
2023-01-09T14:05:16.301Z,95.37
2023-01-09T14:07:44.920Z,95.51
2023-01-09T14:10:28.606Z,95.34
2023-01-09T14:12:56.952Z,95.41
2023-01-09T14:15:26.813Z,95.41
2023-01-09T14:18:24.555Z,95.28
2023-01-09T14:20:57.166Z,95.21
2023-01-09T14:23:51.961Z,95.28
2023-01-09T14:26:23.824Z,95.25
2023-01-09T14:28:50.517Z,95.41
2023-01-09T14:31:28.275Z,95.44
2023-01-09T14:34:31.157Z,95.52
2023-01-09T14:37:00.654Z,95.35
2023-01-09T14:39:31.283Z,95.43
2023-01-09T14:42:06.098Z,95.26
2023-01-09T14:44:54.793Z,95.32
2023-01-09T14:47:30.193Z,95.36
2023-01-09T14:50:07.943Z,95.20
2023-01-09T14:52:44.327Z,95.11
2023-01-09T14:55:23.881Z,95.11
2023-01-09T14:57:54.019Z,95.09
2023-01-09T15:00:21.728Z,95.10
2023-01-09T15:02:51.025Z,95.12
2023-01-09T15:05:24.486Z,95.03
2023-01-09T15:08:01.443Z,95.18
2023-01-09T15:10:31.467Z,95.09
2023-01-09T15:13:01.593Z,95.13
2023-01-09T15:15:28.062Z,95.07
2023-01-09T15:17:58.443Z,95.18
2023-01-09T15:20:30.478Z,95.09
2023-01-09T15:23:03.530Z,95.01
2023-01-09T15:25:39.622Z,94.95
2023-01-09T15:28:32.776Z,94.87
2023-01-09T15:31:08.992Z,94.77
2023-01-09T15:33:39.512Z,94.77
2023-01-09T15:36:16.183Z,94.70
2023-01-09T15:38:43.460Z,94.72
2023-01-09T15:41:34.997Z,94.72
2023-01-09T15:44:03.430Z,94.77
2023-01-09T15:46:29.692Z,94.71
2023-01-09T15:48:56.313Z,94.89
2023-01-09T15:51:24.029Z,94.67
2023-01-09T15:53:50.747Z,94.55
2023-01-09T15:56:23.318Z,94.74
2023-01-09T15:58:50.801Z,94.72
2023-01-09T16:01:34.384Z,94.48
2023-01-09T16:04:11.250Z,94.65
2023-01-09T16:06:47.072Z,94.82
2023-01-09T16:09:17.522Z,94.74
2023-01-09T16:11:52.267Z,94.79
2023-01-09T16:14:23.888Z,94.70
2023-01-09T16:16:51.736Z,94.78
2023-01-09T16:19:58.053Z,94.75
2023-01-09T16:22:29.475Z,94.69
2023-01-09T16:24:58.947Z,94.91
2023-01-09T16:27:27.959Z,94.79
2023-01-09T16:29:59.844Z,94.62
2023-01-09T16:32:33.769Z,94.73
2023-01-09T16:35:06.781Z,94.85
2023-01-09T16:37:33.863Z,94.43
2023-01-09T16:40:21.743Z,94.70
2023-01-09T16:42:59.817Z,94.87
2023-01-09T16:45:46.466Z,94.69
2023-01-09T16:48:19.431Z,94.83
2023-01-09T16:50:46.383Z,94.82
2023-01-09T16:53:23.277Z,94.74
2023-01-09T16:55:52.224Z,94.92
2023-01-09T16:58:38.733Z,94.76
2023-01-09T17:01:06.096Z,94.93
2023-01-09T17:03:34.610Z,94.96
2023-01-09T17:06:02.486Z,94.81
2023-01-09T17:08:32.323Z,95.06
2023-01-09T17:10:58.588Z,94.82
2023-01-09T17:13:25.596Z,94.90
2023-01-09T17:15:52.877Z,94.73
2023-01-09T17:18:22.629Z,94.81
2023-01-09T17:20:59.194Z,94.90
2023-01-09T17:23:25.460Z,94.95
2023-01-09T17:26:15.735Z,94.94
2023-01-09T17:28:50.335Z,95.00
2023-01-09T17:31:17.296Z,94.93
2023-01-09T17:33:43.599Z,94.96
2023-01-09T17:36:18.567Z,94.99
2023-01-09T17:38:44.970Z,95.00
2023-01-09T17:41:12.906Z,94.94
2023-01-09T17:43:41.371Z,94.94
2023-01-09T17:46:17.573Z,94.91
2023-01-09T17:48:43.909Z,94.83
2023-01-09T17:51:10.208Z,94.90
2023-01-09T17:53:36.555Z,94.75
2023-01-09T17:56:04.268Z,94.82
2023-01-09T17:58:30.632Z,94.75
2023-01-09T18:00:58.167Z,94.55
2023-01-09T18:03:30.151Z,94.53
2023-01-09T18:05:56.620Z,94.68
2023-01-09T18:08:22.869Z,94.72
2023-01-09T18:10:49.373Z,94.60
2023-01-09T18:13:16.174Z,94.62
2023-01-09T18:15:44.054Z,94.52
2023-01-09T18:18:12.392Z,94.56
2023-01-09T18:20:39.773Z,94.46
2023-01-09T18:23:07.170Z,94.60
2023-01-09T18:25:33.623Z,94.50
2023-01-09T18:28:00.035Z,94.46
2023-01-09T18:30:26.803Z,94.50
2023-01-09T18:32:53.096Z,94.44
2023-01-09T18:35:19.490Z,94.36
2023-01-09T18:37:45.767Z,94.45
2023-01-09T18:40:12.289Z,94.49
2023-01-09T18:42:40.148Z,94.38
2023-01-09T18:45:07.820Z,94.52
2023-01-09T18:47:34.074Z,94.45
2023-01-09T18:50:00.427Z,94.46
2023-01-09T18:52:26.788Z,94.42
2023-01-09T18:54:53.067Z,94.30
2023-01-09T18:57:19.303Z,94.31
2023-01-09T18:59:45.627Z,94.23
2023-01-09T19:02:23.138Z,94.30
2023-01-09T19:04:49.767Z,94.17
2023-01-09T19:07:16.422Z,94.13
2023-01-09T19:09:44.024Z,93.92
2023-01-09T19:12:10.657Z,93.72
2023-01-09T19:14:37.761Z,93.64
2023-01-09T19:17:04.479Z,93.75
2023-01-09T19:19:30.905Z,93.64
2023-01-09T19:21:57.690Z,93.79
2023-01-09T19:24:24.943Z,93.78
2023-01-09T19:26:51.522Z,93.63
2023-01-09T19:29:17.834Z,93.43
2023-01-09T19:31:46.106Z,93.41
2023-01-09T19:34:12.920Z,93.45
2023-01-09T19:36:39.277Z,93.39
2023-01-09T19:39:06.616Z,93.39
2023-01-09T19:41:32.883Z,93.36
2023-01-09T19:43:59.531Z,93.33
2023-01-09T19:46:26.328Z,93.20
2023-01-09T19:48:53.127Z,93.33
2023-01-09T19:51:21.182Z,93.36
2023-01-09T19:53:53.304Z,93.39
2023-01-09T19:56:21.977Z,93.28
2023-01-09T19:58:53.442Z,93.30
2023-01-09T20:01:23.834Z,93.43
2023-01-09T20:03:51.114Z,93.11
2023-01-09T20:06:23.319Z,93.30
2023-01-09T20:08:57.441Z,93.35
2023-01-09T20:11:25.939Z,93.28
2023-01-09T20:13:52.439Z,93.22
2023-01-09T20:16:21.352Z,93.22
2023-01-09T20:18:47.923Z,93.38
2023-01-09T20:23:49.465Z,93.27
2023-01-09T20:26:16.587Z,93.43
2023-01-09T20:28:43.790Z,93.36
2023-01-09T20:31:11.441Z,93.10
2023-01-09T20:33:38.380Z,93.17
2023-01-09T20:36:05.278Z,93.24
2023-01-09T20:38:32.414Z,93.20
2023-01-09T20:41:25.228Z,93.14
2023-01-09T20:43:55.589Z,93.07
2023-01-09T20:46:25.777Z,93.09
2023-01-09T20:48:55.525Z,93.11
2023-01-09T20:51:21.949Z,92.67
2023-01-09T20:53:55.140Z,92.88
2023-01-09T20:56:30.115Z,92.70
2023-01-09T20:58:57.922Z,92.81
2023-01-09T21:01:25.124Z,92.70
2023-01-09T21:03:53.505Z,92.73
2023-01-09T21:06:22.083Z,92.43
2023-01-09T21:08:50.069Z,92.66
2023-01-09T21:11:16.567Z,92.84
2023-01-09T21:13:43.047Z,92.82
2023-01-09T21:16:12.596Z,92.59
2023-01-09T21:18:39.743Z,92.57
2023-01-09T21:21:09.766Z,92.76
2023-01-09T21:23:36.288Z,92.75
2023-01-09T21:26:09.014Z,92.33
2023-01-09T21:28:55.894Z,92.41
2023-01-09T21:31:32.815Z,92.34
2023-01-09T21:34:04.062Z,92.43
2023-01-09T21:36:30.880Z,92.26
2023-01-09T21:38:58.240Z,92.40
2023-01-09T21:41:43.320Z,92.37
2023-01-09T21:44:30.392Z,92.16
2023-01-09T21:46:59.218Z,92.02
2023-01-09T21:49:26.706Z,91.94
2023-01-09T21:51:53.843Z,92.04
2023-01-09T21:54:22.487Z,92.14
2023-01-09T21:56:49.717Z,92.27
2023-01-09T21:59:16.505Z,92.22
2023-01-09T22:01:43.460Z,92.42
2023-01-09T22:04:13.068Z,92.24
2023-01-09T22:06:39.354Z,92.37
2023-01-09T22:09:05.628Z,92.37
2023-01-09T22:11:31.856Z,92.29
2023-01-09T22:13:59.573Z,92.36
2023-01-09T22:16:26.435Z,92.36
2023-01-09T22:18:56.399Z,92.64
2023-01-09T22:21:24.806Z,92.67
2023-01-09T22:23:51.875Z,92.53
2023-01-09T22:26:18.746Z,92.44
2023-01-09T22:28:45.494Z,92.53
2023-01-09T22:31:17.060Z,92.50
2023-01-09T22:33:47.499Z,92.32
2023-01-09T22:36:13.713Z,92.52
2023-01-09T22:38:39.917Z,92.61
2023-01-09T22:41:06.327Z,92.60
2023-01-09T22:43:32.669Z,92.45
2023-01-09T22:46:00.786Z,92.67
2023-01-09T22:48:30.971Z,92.60
2023-01-09T22:51:11.258Z,92.72
2023-01-09T22:53:37.952Z,92.53
2023-01-09T22:56:07.622Z,92.55
2023-01-09T22:58:33.924Z,92.51
2023-01-09T23:01:00.178Z,92.53
2023-01-09T23:03:26.946Z,92.64
2023-01-09T23:06:14.666Z,92.52
2023-01-09T23:08:41.426Z,92.54
2023-01-09T23:11:14.019Z,92.45
2023-01-09T23:13:40.304Z,92.28
2023-01-09T23:16:06.725Z,92.36
2023-01-09T23:18:33.825Z,92.26
2023-01-09T23:21:03.105Z,92.30
2023-01-09T23:23:30.891Z,92.65
2023-01-09T23:26:01.341Z,92.61
2023-01-09T23:28:27.711Z,92.84
2023-01-09T23:30:54.019Z,92.83
2023-01-09T23:33:20.593Z,92.75
2023-01-09T23:35:47.299Z,92.72
2023-01-09T23:38:14.650Z,92.99
2023-01-09T23:40:41.483Z,92.95
2023-01-09T23:43:11.820Z,92.98
2023-01-09T23:45:40.869Z,92.98
2023-01-09T23:48:09.810Z,92.92
2023-01-09T23:50:36.511Z,93.05
2023-01-09T23:53:03.734Z,93.04
2023-01-09T23:55:30.060Z,93.10
2023-01-09T23:57:56.599Z,93.02
